createdAt,value
2018-12-12T00:00:16.878Z,24.93
2018-12-12T00:02:44.333Z,26.70
2018-12-12T00:05:11.817Z,25.57
2018-12-12T00:07:39.289Z,20.70
2018-12-12T00:10:08.736Z,25.90
2018-12-12T00:12:36.428Z,25.43
2018-12-12T00:15:04.845Z,27.93
2018-12-12T00:17:32.331Z,26.17
2018-12-12T00:19:59.785Z,22.60
2018-12-12T00:22:27.242Z,24.30
2018-12-12T00:24:54.703Z,31.60
2018-12-12T00:27:22.193Z,20.03
2018-12-12T00:29:49.635Z,26.20
2018-12-12T00:32:17.099Z,29.57
2018-12-12T00:34:44.568Z,26.13
2018-12-12T00:37:12.043Z,27.17
2018-12-12T00:39:39.506Z,26.93
2018-12-12T00:42:06.988Z,19.77
2018-12-12T00:44:34.475Z,28.40
2018-12-12T00:47:02.069Z,35.30
2018-12-12T00:49:29.548Z,31.30
2018-12-12T00:51:57.344Z,34.77
2018-12-12T00:54:24.802Z,30.57
2018-12-12T00:56:52.289Z,20.90
2018-12-12T00:59:19.746Z,28.27
2018-12-12T01:01:47.192Z,28.13
2018-12-12T01:04:14.653Z,24.80
2018-12-12T01:06:42.101Z,27.50
2018-12-12T01:09:09.903Z,28.70
2018-12-12T01:11:43.229Z,37.90
2018-12-12T01:14:10.676Z,30.33
2018-12-12T01:16:38.138Z,28.00
2018-12-12T01:19:05.589Z,31.77
2018-12-12T01:21:33.042Z,25.20
2018-12-12T01:24:00.501Z,26.97
2018-12-12T01:26:27.974Z,30.20
2018-12-12T01:28:55.423Z,25.00
2018-12-12T01:31:22.890Z,30.00
2018-12-12T01:33:50.339Z,32.57
2018-12-12T01:36:17.793Z,28.33
2018-12-12T01:38:45.256Z,27.70
2018-12-12T01:41:12.706Z,28.57
2018-12-12T01:43:40.175Z,25.47
2018-12-12T01:46:07.696Z,32.63
2018-12-12T01:48:35.157Z,25.60
2018-12-12T01:51:02.645Z,20.63
2018-12-12T01:53:30.101Z,29.50
2018-12-12T01:55:58.412Z,29.93
2018-12-12T01:58:25.871Z,29.50
2018-12-12T02:00:53.322Z,20.90
2018-12-12T02:03:20.784Z,30.80
2018-12-12T02:05:48.319Z,24.30
2018-12-12T02:08:15.842Z,20.67
2018-12-12T02:10:43.307Z,35.03
2018-12-12T02:13:22.631Z,27.50
2018-12-12T02:15:50.072Z,21.53
2018-12-12T02:18:17.520Z,32.53
2018-12-12T02:20:45.022Z,31.80
2018-12-12T02:23:12.459Z,31.33
2018-12-12T02:25:39.915Z,26.03
2018-12-12T02:28:07.373Z,26.53
2018-12-12T02:30:34.849Z,33.43
2018-12-12T02:33:02.296Z,22.93
2018-12-12T02:35:29.749Z,23.73
2018-12-12T02:37:57.221Z,26.90
2018-12-12T02:40:24.690Z,48.93
2018-12-12T02:42:52.134Z,42.77
2018-12-12T02:45:19.595Z,20.63
2018-12-12T02:47:47.057Z,43.40
2018-12-12T02:50:14.599Z,25.90
2018-12-12T02:52:42.049Z,25.27
2018-12-12T02:55:09.586Z,29.10
2018-12-12T02:57:37.045Z,32.10
2018-12-12T03:00:07.933Z,31.20
2018-12-12T03:02:36.909Z,26.00
2018-12-12T03:05:04.862Z,29.17
2018-12-12T03:07:32.312Z,21.97
2018-12-12T03:09:59.951Z,24.80
2018-12-12T03:12:27.468Z,22.80
2018-12-12T03:14:55.871Z,39.43
2018-12-12T03:17:23.332Z,29.20
2018-12-12T03:19:50.856Z,38.93
2018-12-12T03:22:18.343Z,32.97
2018-12-12T03:24:45.797Z,32.03
2018-12-12T03:27:13.337Z,23.40
2018-12-12T03:29:40.797Z,29.27
2018-12-12T03:32:08.334Z,38.90
2018-12-12T03:34:35.886Z,24.73
2018-12-12T03:37:03.398Z,23.33
2018-12-12T03:39:31.192Z,35.80
2018-12-12T03:41:58.694Z,38.13
2018-12-12T03:44:26.149Z,31.90
2018-12-12T03:46:53.707Z,30.90
2018-12-12T03:49:21.152Z,31.83
2018-12-12T03:51:48.661Z,30.80
2018-12-12T03:54:16.103Z,30.30
2018-12-12T03:56:43.575Z,32.10
2018-12-12T03:59:11.008Z,26.13
2018-12-12T04:01:38.467Z,30.77
2018-12-12T04:04:06.010Z,27.40
2018-12-12T04:06:33.475Z,26.07
2018-12-12T04:09:01.029Z,29.37
2018-12-12T04:11:28.496Z,23.13
2018-12-12T04:13:55.962Z,29.70
2018-12-12T04:16:23.658Z,27.23
2018-12-12T04:18:51.253Z,24.73
2018-12-12T04:21:18.706Z,28.20
2018-12-12T04:23:46.160Z,29.80
2018-12-12T04:26:13.614Z,39.70
2018-12-12T04:28:41.076Z,32.53
2018-12-12T04:31:08.531Z,35.50
2018-12-12T04:33:35.994Z,33.77
2018-12-12T04:36:03.508Z,30.97
2018-12-12T04:38:31.045Z,35.10
2018-12-12T04:40:58.500Z,30.00
2018-12-12T04:43:25.954Z,35.47
2018-12-12T04:45:53.402Z,34.13
2018-12-12T04:48:20.856Z,33.73
2018-12-12T04:50:48.312Z,40.47
2018-12-12T04:53:15.765Z,36.33
2018-12-12T04:55:43.228Z,29.43
2018-12-12T04:58:10.684Z,38.17
2018-12-12T05:00:38.134Z,27.57
2018-12-12T05:03:05.968Z,33.60
2018-12-12T05:05:33.428Z,33.67
2018-12-12T05:08:01.835Z,49.40
2018-12-12T05:10:29.376Z,33.20
2018-12-12T05:12:56.836Z,36.73
2018-12-12T05:15:24.427Z,49.50
2018-12-12T05:17:51.879Z,32.53
2018-12-12T05:20:19.332Z,30.37
2018-12-12T05:22:46.888Z,25.67
2018-12-12T05:25:14.346Z,27.20
2018-12-12T05:27:41.800Z,31.23
2018-12-12T05:30:09.341Z,38.63
2018-12-12T05:32:36.855Z,30.00
2018-12-12T05:35:04.536Z,25.87
2018-12-12T05:37:31.980Z,28.30
2018-12-12T05:39:59.450Z,23.27
2018-12-12T05:42:26.897Z,28.97
2018-12-12T05:44:54.352Z,25.00
2018-12-12T05:47:21.805Z,33.07
2018-12-12T05:49:49.262Z,29.37
2018-12-12T05:52:16.709Z,26.43
2018-12-12T05:54:44.168Z,31.57
2018-12-12T05:57:11.613Z,28.07
2018-12-12T05:59:39.087Z,23.10
2018-12-12T06:02:06.642Z,27.80
2018-12-12T06:04:34.105Z,28.77
2018-12-12T06:07:01.571Z,32.13
2018-12-12T06:09:29.105Z,24.47
2018-12-12T06:11:56.564Z,35.93
2018-12-12T06:14:24.094Z,26.57
2018-12-12T06:16:51.569Z,27.17
2018-12-12T06:19:19.049Z,27.97
2018-12-12T06:21:46.507Z,22.80
2018-12-12T06:24:14.982Z,27.07
2018-12-12T06:26:42.436Z,24.87
2018-12-12T06:29:09.897Z,20.13
2018-12-12T06:31:37.354Z,20.60
2018-12-12T06:34:04.821Z,20.10
2018-12-12T06:36:32.265Z,16.27
2018-12-12T06:38:59.722Z,17.97
2018-12-12T06:41:27.220Z,19.43
2018-12-12T06:43:54.673Z,19.60
2018-12-12T06:46:22.133Z,13.80
2018-12-12T06:48:49.602Z,20.30
2018-12-12T06:51:17.065Z,18.70
2018-12-12T06:53:44.526Z,19.73
2018-12-12T06:56:12.024Z,17.87
2018-12-12T06:58:39.486Z,21.67
2018-12-12T07:01:07.018Z,25.10
2018-12-12T07:03:34.465Z,22.40
2018-12-12T07:06:01.924Z,22.67
2018-12-12T07:08:29.390Z,18.10
2018-12-12T07:10:56.833Z,21.07
2018-12-12T07:13:24.283Z,24.33
2018-12-12T07:15:51.768Z,19.07
2018-12-12T07:18:19.220Z,14.40
2018-12-12T07:20:46.672Z,16.80
2018-12-12T07:23:14.160Z,23.80
2018-12-12T07:25:41.616Z,17.17
2018-12-12T07:28:09.076Z,20.30
2018-12-12T07:30:36.573Z,18.97
2018-12-12T07:33:04.041Z,17.50
2018-12-12T07:35:31.578Z,21.40
2018-12-12T07:37:59.085Z,16.70
2018-12-12T07:40:26.531Z,29.13
2018-12-12T07:42:53.985Z,23.37
2018-12-12T07:45:21.482Z,28.27
2018-12-12T07:47:48.932Z,32.50
2018-12-12T07:50:16.394Z,26.33
2018-12-12T07:52:43.852Z,26.10
2018-12-12T07:55:11.304Z,37.93
2018-12-12T07:57:38.770Z,28.50
2018-12-12T08:00:08.106Z,24.23
2018-12-12T08:02:35.576Z,23.47
2018-12-12T08:05:03.105Z,18.40
2018-12-12T08:07:30.589Z,21.77
2018-12-12T08:09:58.050Z,22.43
2018-12-12T08:12:25.523Z,27.00
2018-12-12T08:14:52.990Z,20.37
2018-12-12T08:17:20.446Z,16.77
2018-12-12T08:19:47.914Z,15.97
2018-12-12T08:22:15.368Z,16.57
2018-12-12T08:24:42.816Z,14.47
2018-12-12T08:27:10.268Z,14.10
2018-12-12T08:29:37.725Z,20.27
2018-12-12T08:32:05.324Z,19.67
2018-12-12T08:34:32.765Z,21.10
2018-12-12T08:37:00.220Z,17.93
2018-12-12T08:39:27.671Z,18.20
2018-12-12T08:41:56.060Z,16.60
2018-12-12T08:44:23.519Z,12.63
2018-12-12T08:46:50.987Z,11.80
2018-12-12T08:49:18.431Z,12.50
2018-12-12T08:51:45.900Z,11.70
2018-12-12T08:54:13.345Z,21.60
2018-12-12T08:56:40.827Z,11.53
2018-12-12T08:59:08.282Z,13.10
2018-12-12T09:01:36.088Z,14.37
2018-12-12T09:04:03.613Z,10.13
2018-12-12T09:06:31.155Z,9.33
2018-12-12T09:08:58.621Z,19.10
2018-12-12T09:11:26.069Z,12.70
2018-12-12T09:13:53.556Z,14.00
2018-12-12T09:16:21.046Z,10.97
2018-12-12T09:18:48.512Z,15.57
2018-12-12T09:21:15.973Z,13.43
2018-12-12T09:23:43.435Z,14.00
2018-12-12T09:26:10.892Z,16.87
2018-12-12T09:28:38.373Z,14.80
2018-12-12T09:31:05.825Z,14.30
2018-12-12T09:33:33.279Z,10.50
2018-12-12T09:36:00.736Z,12.97
2018-12-12T09:38:28.207Z,10.20
2018-12-12T09:40:55.692Z,10.13
2018-12-12T09:43:24.204Z,13.67
2018-12-12T09:45:51.729Z,17.90
2018-12-12T09:48:21.161Z,13.03
2018-12-12T09:50:48.742Z,12.70
2018-12-12T09:53:16.248Z,12.60
2018-12-12T09:55:43.758Z,7.93
2018-12-12T09:58:11.280Z,9.10
2018-12-12T10:00:38.750Z,12.63
2018-12-12T10:03:06.861Z,9.60
2018-12-12T10:05:34.466Z,11.97
2018-12-12T10:08:01.914Z,7.73
2018-12-12T10:10:29.388Z,10.00
2018-12-12T10:12:56.829Z,6.27
2018-12-12T10:15:24.290Z,18.87
2018-12-12T10:17:51.755Z,10.20
2018-12-12T10:20:19.219Z,6.93
2018-12-12T10:22:46.695Z,6.40
2018-12-12T10:25:14.199Z,7.97
2018-12-12T10:27:41.681Z,13.33
2018-12-12T10:30:09.174Z,9.30
2018-12-12T10:32:36.623Z,7.83
2018-12-12T10:35:04.561Z,8.90
2018-12-12T10:37:32.007Z,6.77
2018-12-12T10:39:59.458Z,10.13
2018-12-12T10:42:26.928Z,9.47
2018-12-12T10:44:54.385Z,4.43
2018-12-12T10:47:21.835Z,3.50
2018-12-12T10:49:49.297Z,3.73
2018-12-12T10:52:16.733Z,3.77
2018-12-12T10:54:44.192Z,4.23
2018-12-12T10:57:11.685Z,2.50
2018-12-12T10:59:39.234Z,4.83
2018-12-12T11:02:12.450Z,4.87
2018-12-12T11:04:39.907Z,3.70
2018-12-12T11:07:07.344Z,3.13
2018-12-12T11:09:34.924Z,7.50
2018-12-12T11:12:02.378Z,7.73
2018-12-12T11:14:29.820Z,9.63
2018-12-12T11:16:57.280Z,4.67
2018-12-12T11:19:24.760Z,8.00
2018-12-12T11:21:52.222Z,3.63
2018-12-12T11:24:19.669Z,5.53
2018-12-12T11:26:47.142Z,4.03
2018-12-12T11:29:14.589Z,3.77
2018-12-12T11:31:42.039Z,4.00
2018-12-12T11:34:09.482Z,2.33
2018-12-12T11:36:38.169Z,3.00
2018-12-12T11:39:06.510Z,2.07
2018-12-12T11:41:33.960Z,7.10
2018-12-12T11:44:01.437Z,5.70
2018-12-12T11:46:28.889Z,6.03
2018-12-12T11:48:56.342Z,2.50
2018-12-12T11:51:23.807Z,2.60
2018-12-12T11:53:51.252Z,2.40
2018-12-12T11:56:18.766Z,2.00
2018-12-12T11:58:46.220Z,2.40
2018-12-12T12:01:13.719Z,1.63
2018-12-12T12:03:41.171Z,3.40
2018-12-12T12:06:08.615Z,3.07
2018-12-12T12:08:36.064Z,3.07
2018-12-12T12:11:03.572Z,4.80
2018-12-12T12:13:31.022Z,5.80
2018-12-12T12:15:58.478Z,1.90
2018-12-12T12:18:25.932Z,1.57
2018-12-12T12:20:53.376Z,2.43
2018-12-12T12:23:20.846Z,2.40
2018-12-12T12:25:48.311Z,2.13
2018-12-12T12:28:15.778Z,2.87
2018-12-12T12:30:43.222Z,2.87
2018-12-12T12:33:10.687Z,3.20
2018-12-12T12:35:38.127Z,2.40
2018-12-12T12:38:05.660Z,4.10
2018-12-12T12:40:33.110Z,2.13
2018-12-12T12:43:00.570Z,2.30
2018-12-12T12:45:29.188Z,2.40
2018-12-12T12:47:56.874Z,3.37
2018-12-12T12:50:24.336Z,2.13
2018-12-12T12:52:51.796Z,2.93
2018-12-12T12:55:19.237Z,3.90
2018-12-12T12:57:46.681Z,2.60
2018-12-12T13:00:14.161Z,3.47
2018-12-12T13:02:41.649Z,4.70
2018-12-12T13:05:09.094Z,4.30
2018-12-12T13:07:36.548Z,8.00
2018-12-12T13:10:04.485Z,1.60
2018-12-12T13:12:31.925Z,2.07
2018-12-12T13:14:59.398Z,2.30
2018-12-12T13:17:26.848Z,2.37
2018-12-12T13:19:54.296Z,7.53
2018-12-12T13:22:21.792Z,6.37
2018-12-12T13:24:49.247Z,2.30
2018-12-12T13:27:16.719Z,1.80
2018-12-12T13:29:44.187Z,1.20
2018-12-12T13:32:11.633Z,3.17
2018-12-12T13:34:39.088Z,2.80
2018-12-12T13:37:06.538Z,2.57
2018-12-12T13:39:34.008Z,3.60
2018-12-12T13:42:01.449Z,2.60
2018-12-12T13:44:28.917Z,10.80
2018-12-12T13:46:56.482Z,2.20
2018-12-12T13:49:23.945Z,2.33
2018-12-12T13:51:51.403Z,5.00
2018-12-12T13:54:18.861Z,6.20
2018-12-12T13:56:46.340Z,3.20
2018-12-12T13:59:13.793Z,3.17
2018-12-12T14:01:41.285Z,4.90
2018-12-12T14:04:08.748Z,4.67
2018-12-12T14:06:36.204Z,5.03
2018-12-12T14:09:04.944Z,2.20
2018-12-12T14:11:32.406Z,4.30
2018-12-12T14:13:59.857Z,1.70
2018-12-12T14:16:27.313Z,2.27
2018-12-12T14:18:54.768Z,4.00
2018-12-12T14:21:22.224Z,5.97
2018-12-12T14:23:49.684Z,2.50
2018-12-12T14:26:17.169Z,6.73
2018-12-12T14:28:44.626Z,2.20
2018-12-12T14:31:12.083Z,3.10
2018-12-12T14:33:39.522Z,4.47
2018-12-12T14:36:06.969Z,7.00
2018-12-12T14:38:34.496Z,2.43
2018-12-12T14:41:01.940Z,2.40
2018-12-12T14:43:29.409Z,2.27
2018-12-12T14:45:56.854Z,1.80
2018-12-12T14:48:30.158Z,3.70
2018-12-12T14:50:53.794Z,3.00
2018-12-12T14:53:21.236Z,3.00
2018-12-12T14:55:48.712Z,4.50
2018-12-12T14:58:16.149Z,2.57
2018-12-12T15:00:43.602Z,2.50
2018-12-12T15:03:11.045Z,2.40
2018-12-12T15:05:38.512Z,3.27
2018-12-12T15:08:05.999Z,4.57
2018-12-12T15:10:33.440Z,11.07
2018-12-12T15:13:00.907Z,8.70
2018-12-12T15:15:28.347Z,4.50
2018-12-12T15:17:55.800Z,4.23
2018-12-12T15:20:23.244Z,2.50
2018-12-12T15:22:50.693Z,2.17
2018-12-12T15:25:18.155Z,11.23
2018-12-12T15:27:45.603Z,4.97
2018-12-12T15:30:13.097Z,2.30
2018-12-12T15:32:40.538Z,1.87
2018-12-12T15:35:08.038Z,2.50
2018-12-12T15:37:35.508Z,2.67
2018-12-12T15:40:04.738Z,3.97
2018-12-12T15:42:32.223Z,2.60
2018-12-12T15:44:59.655Z,4.20
2018-12-12T15:47:27.112Z,3.53
2018-12-12T15:49:55.532Z,3.77
2018-12-12T15:52:22.990Z,3.50
2018-12-12T15:54:50.433Z,8.33
2018-12-12T15:57:17.895Z,3.10
2018-12-12T15:59:45.328Z,3.47
2018-12-12T16:02:12.784Z,3.67
2018-12-12T16:04:40.232Z,3.10
2018-12-12T16:07:07.817Z,3.80
2018-12-12T16:09:35.272Z,2.13
2018-12-12T16:12:02.732Z,4.90
2018-12-12T16:14:30.186Z,2.30
2018-12-12T16:16:57.637Z,3.03
2018-12-12T16:19:25.084Z,2.37
2018-12-12T16:21:52.548Z,2.40
2018-12-12T16:24:20.009Z,3.70
2018-12-12T16:26:48.429Z,2.40
2018-12-12T16:29:15.884Z,2.67
2018-12-12T16:31:43.490Z,2.33
2018-12-12T16:34:10.942Z,3.33
2018-12-12T16:36:38.394Z,3.73
2018-12-12T16:39:07.025Z,4.70
2018-12-12T16:41:34.553Z,2.30
2018-12-12T16:44:02.230Z,3.07
2018-12-12T16:46:29.681Z,5.63
2018-12-12T16:48:57.182Z,2.90
2018-12-12T16:51:24.641Z,5.17
2018-12-12T16:53:52.158Z,2.57
2018-12-12T16:56:19.611Z,3.40
2018-12-12T16:58:47.105Z,5.43
2018-12-12T17:01:14.555Z,2.00
2018-12-12T17:03:41.992Z,2.20
2018-12-12T17:06:09.451Z,3.20
2018-12-12T17:08:36.889Z,3.53
2018-12-12T17:11:04.349Z,3.33
2018-12-12T17:13:31.853Z,3.83
2018-12-12T17:15:59.349Z,3.23
2018-12-12T17:18:26.797Z,3.00
2018-12-12T17:20:54.249Z,4.93
2018-12-12T17:23:21.697Z,11.50
2018-12-12T17:25:49.146Z,6.77
2018-12-12T17:28:16.593Z,4.63
2018-12-12T17:30:44.043Z,5.23
2018-12-12T17:33:11.500Z,3.07
2018-12-12T17:35:38.970Z,4.00
2018-12-12T17:38:06.465Z,3.93
2018-12-12T17:40:33.935Z,6.00
2018-12-12T17:43:01.460Z,3.90
2018-12-12T17:45:29.844Z,3.70
2018-12-12T17:47:57.345Z,2.57
2018-12-12T17:50:24.793Z,2.83
2018-12-12T17:52:52.245Z,4.87
2018-12-12T17:55:19.725Z,7.33
2018-12-12T17:57:47.185Z,5.30
2018-12-12T18:00:14.709Z,6.43
2018-12-12T18:02:42.161Z,7.00
2018-12-12T18:05:15.097Z,9.90
2018-12-12T18:07:39.105Z,6.13
2018-12-12T18:10:06.724Z,6.70
2018-12-12T18:12:34.204Z,8.27
2018-12-12T18:15:01.690Z,9.30
2018-12-12T18:17:29.131Z,6.97
2018-12-12T18:19:56.595Z,8.80
2018-12-12T18:22:24.078Z,9.57
2018-12-12T18:24:51.540Z,7.70
2018-12-12T18:27:18.994Z,7.40
2018-12-12T18:29:46.505Z,6.87
2018-12-12T18:32:13.997Z,7.90
2018-12-12T18:34:41.450Z,8.90
2018-12-12T18:37:08.897Z,7.90
2018-12-12T18:39:36.331Z,6.67
2018-12-12T18:42:03.804Z,12.27
2018-12-12T18:44:31.262Z,8.07
2018-12-12T18:46:58.701Z,5.03
2018-12-12T18:49:26.158Z,4.27
2018-12-12T18:51:53.637Z,8.90
2018-12-12T18:54:21.089Z,4.10
2018-12-12T18:56:48.579Z,4.17
2018-12-12T18:59:16.045Z,8.10
2018-12-12T19:01:43.497Z,4.70
2018-12-12T19:04:10.967Z,4.20
2018-12-12T19:06:38.418Z,3.37
2018-12-12T19:09:06.113Z,5.40
2018-12-12T19:11:33.584Z,7.40
2018-12-12T19:14:01.041Z,13.23
2018-12-12T19:16:28.533Z,14.03
2018-12-12T19:18:56.003Z,10.47
2018-12-12T19:21:23.616Z,7.33
2018-12-12T19:23:51.149Z,10.57
2018-12-12T19:26:18.605Z,12.47
2018-12-12T19:28:46.064Z,20.73
2018-12-12T19:31:13.541Z,18.37
2018-12-12T19:33:40.998Z,17.03
2018-12-12T19:36:08.456Z,16.33
2018-12-12T19:38:35.918Z,12.50
2018-12-12T19:41:03.397Z,11.83
2018-12-12T19:43:30.844Z,15.97
2018-12-12T19:45:58.310Z,6.43
2018-12-12T19:48:25.801Z,10.47
2018-12-12T19:50:53.500Z,9.83
2018-12-12T19:53:20.938Z,7.97
2018-12-12T19:55:48.430Z,9.80
2018-12-12T19:58:15.901Z,7.17
2018-12-12T20:00:43.357Z,8.60
2018-12-12T20:03:10.809Z,6.50
2018-12-12T20:05:41.450Z,8.73
2018-12-12T20:08:07.782Z,7.27
2018-12-12T20:10:35.273Z,10.40
2018-12-12T20:13:02.733Z,8.00
2018-12-12T20:15:36.015Z,7.70
2018-12-12T20:18:03.474Z,6.93
2018-12-12T20:20:30.963Z,6.10
2018-12-12T20:22:58.411Z,6.93
2018-12-12T20:25:25.884Z,7.13
2018-12-12T20:27:53.362Z,6.87
2018-12-12T20:30:20.827Z,10.70
2018-12-12T20:32:48.263Z,9.70
2018-12-12T20:35:15.713Z,7.00
2018-12-12T20:37:43.206Z,8.63
2018-12-12T20:40:10.747Z,9.17
2018-12-12T20:42:38.202Z,7.30
2018-12-12T20:45:06.313Z,7.60
2018-12-12T20:47:33.790Z,11.07
2018-12-12T20:50:01.265Z,11.63
2018-12-12T20:52:28.708Z,5.83
2018-12-12T20:54:56.209Z,9.77
2018-12-12T20:57:23.662Z,10.50
2018-12-12T20:59:51.122Z,6.90
2018-12-12T21:02:18.670Z,11.17
2018-12-12T21:04:46.119Z,8.20
2018-12-12T21:07:13.671Z,9.63
2018-12-12T21:09:41.133Z,9.20
2018-12-12T21:12:08.586Z,12.40
2018-12-12T21:14:36.047Z,10.70
2018-12-12T21:17:03.545Z,11.30
2018-12-12T21:19:31.008Z,12.60
2018-12-12T21:21:58.466Z,16.00
2018-12-12T21:24:25.981Z,10.70
2018-12-12T21:26:53.420Z,12.20
2018-12-12T21:29:20.884Z,9.20
2018-12-12T21:31:48.338Z,8.23
2018-12-12T21:34:15.795Z,9.07
2018-12-12T21:36:43.270Z,8.90
2018-12-12T21:39:10.727Z,18.20
2018-12-12T21:41:38.190Z,16.33
2018-12-12T21:44:05.641Z,13.40
2018-12-12T21:46:33.108Z,17.47
2018-12-12T21:49:00.561Z,13.90
2018-12-12T21:51:28.024Z,19.70
2018-12-12T21:53:55.567Z,16.23
2018-12-12T21:56:23.040Z,18.63
2018-12-12T21:58:50.529Z,14.80
2018-12-12T22:01:18.040Z,15.07
2018-12-12T22:03:45.721Z,9.00
2018-12-12T22:06:13.184Z,7.90
2018-12-12T22:08:40.631Z,9.30
2018-12-12T22:11:08.082Z,7.70
2018-12-12T22:13:35.539Z,7.80
2018-12-12T22:16:03.833Z,7.70
2018-12-12T22:18:31.290Z,12.53
2018-12-12T22:20:58.750Z,10.40
2018-12-12T22:23:26.200Z,8.50
2018-12-12T22:25:53.644Z,14.73
2018-12-12T22:28:21.200Z,9.50
2018-12-12T22:30:48.640Z,7.07
2018-12-12T22:33:16.110Z,7.73
2018-12-12T22:35:43.552Z,6.80
2018-12-12T22:38:11.025Z,9.00
2018-12-12T22:40:38.477Z,9.83
2018-12-12T22:43:05.926Z,6.37
2018-12-12T22:45:33.372Z,7.37
2018-12-12T22:48:00.978Z,8.70
2018-12-12T22:50:28.422Z,8.67
2018-12-12T22:52:55.865Z,5.97
2018-12-12T22:55:23.316Z,5.93
2018-12-12T22:57:50.769Z,8.97
2018-12-12T23:03:32.021Z,10.80
2018-12-12T23:05:59.480Z,12.10
2018-12-12T23:08:27.248Z,7.70
2018-12-12T23:10:54.747Z,11.13
2018-12-12T23:13:22.213Z,11.10
2018-12-12T23:15:49.666Z,12.63
2018-12-12T23:18:17.121Z,8.80
2018-12-12T23:20:44.572Z,7.33
2018-12-12T23:23:12.045Z,8.60
2018-12-12T23:25:39.501Z,9.17
2018-12-12T23:28:06.963Z,7.33
2018-12-12T23:30:34.469Z,7.83
2018-12-12T23:33:01.920Z,7.17
2018-12-12T23:35:29.414Z,8.43
2018-12-12T23:37:56.877Z,10.53
2018-12-12T23:40:24.329Z,9.90
2018-12-12T23:42:51.785Z,6.07
2018-12-12T23:47:53.072Z,7.33
2018-12-12T23:50:20.580Z,7.20
2018-12-12T23:52:48.055Z,7.03
2018-12-12T23:55:15.573Z,4.67
2018-12-12T23:57:43.025Z,6.30
